Latest Weather Observations for Nullarbor

IDS60801

Issued at 9:01 pm CDT Saturday 16 December 2017 (issued every 30 minutes, with the page automatically refreshed every 10 minutes)

About weather observations | Map of weather stations | Latest weather observations for SA | Other Formats
Station Details ID: 018106 Name: NULLARBOR Lat: -31.45 Lon: 130.90 Height: 64.0 m
Data from the previous 72 hours. | See also: Recent months at Nullarbor
Date/Time
CDT
Temp
°C
App
Temp
°C
Dew
Point
°C
Rel
Hum
%
Delta-T
°C
Wind Press
QNH
hPa
Press
MSL
hPa
Rain since
9am
mm
Dir  Spd
km/h
Gust
km/h
Spd
kts
Gust
kts
16/09:00pm 19.5 13.7 15.0 75 2.6 ESE 39 50 21 27 1008.4 1008.1 0.0
16/08:30pm 19.9 14.3 14.5 71 3.2 ESE 37 50 20 27 1009.3 1009.0 0.0
16/08:00pm 20.7 14.5 13.9 65 3.9 ESE 39 50 21 27 1009.5 1009.3 0.0
16/07:30pm 21.0 14.6 14.2 65 4.0 SE 41 48 22 26 1009.8 1009.6 0.0
16/07:00pm 21.2 15.0 13.9 63 4.2 SE 39 50 21 27 1010.1 1009.9 0.0
16/06:30pm 22.4 15.3 13.5 57 5.2 SE 43 52 23 28 1010.1 1009.9 0.0
16/06:00pm 22.5 15.9 13.8 58 5.1 SE 41 50 22 27 1010.5 1010.3 0.0
16/05:30pm 22.1 16.0 14.0 60 4.7 SE 39 48 21 26 1010.6 1010.4 0.0
16/05:00pm 23.7 17.6 15.2 59 5.1 SE 41 52 22 28 1010.6 1010.4 0.0
16/04:30pm 24.1 18.2 14.8 56 5.6 SSE 39 48 21 26 1010.6 1010.4 0.0
16/04:00pm 23.7 17.9 14.9 57 5.3 SSE 39 48 21 26 1011.1 1010.9 0.0
16/03:30pm 26.2 20.5 13.0 44 7.7 SSE 35 46 19 25 1011.5 1011.3 0.0
16/03:00pm 27.3 21.4 11.3 37 9.2 SSE 33 43 18 23 1011.7 1011.5 0.0
16/02:30pm 28.7 23.0 9.9 31 10.6 SSE 30 39 16 21 1011.8 1011.6 0.0
16/02:00pm 29.8 24.8 8.2 26 11.9 SSE 24 32 13 17 1012.0 1011.8 0.0
16/01:30pm 31.4 27.4 2.6 16 14.6 NNE 13 26 7 14 1012.4 1012.2 0.0
16/01:00pm 30.5 26.1 2.7 17 14.0 NNE 15 20 8 11 1012.6 1012.4 0.0
16/12:30pm 30.4 25.6 2.6 17 14.0 NE 17 24 9 13 1013.0 1012.8 0.0
16/12:00pm 29.2 24.3 4.0 20 12.9 NNE 19 28 10 15 1013.3 1013.1 0.0
16/11:30am 27.2 21.9 4.9 24 11.4 NNE 22 32 12 17 1013.5 1013.3 0.0
16/11:00am 26.3 20.4 7.4 30 10.1 NE 28 35 15 19 1013.4 1013.2 0.0
16/10:30am 24.7 18.9 7.8 34 9.0 NE 28 39 15 21 1013.8 1013.6 0.0
16/10:00am 23.1 16.9 9.5 42 7.4 NE 32 41 17 22 1013.8 1013.6 0.0
16/09:30am 21.1 15.6 10.6 51 5.7 ENE 30 37 16 20 1014.5 1014.3 0.0
16/09:00am 19.6 14.5 11.9 61 4.3 ENE 30 37 16 20 1014.6 1014.4 0.0
16/08:30am 18.1 14.1 13.0 72 2.9 ENE 26 33 14 18 1015.1 1014.9 0.0
16/08:00am 16.3 13.5 14.3 88 1.1 ENE 22 28 12 15 1014.7 1014.5 0.0
16/07:30am 13.9 11.9 13.9 100 0.0 ENE 17 24 9 13 1014.5 1014.3 0.0
16/07:00am 12.3 9.8 12.3 100 0.0 ENE 17 20 9 11 1014.3 1014.1 0.0
16/06:30am 12.0 9.8 12.0 100 0.0 ENE 15 19 8 10 1014.3 1014.1 0.0
16/06:00am 12.0 9.8 12.0 100 0.0 ENE 15 17 8 9 1014.0 1013.8 0.0
16/05:30am 11.5 8.7 11.5 100 0.0 NE 17 17 9 9 1014.1 1013.9 0.0
16/05:00am 11.4 9.0 11.4 100 0.0 NE 15 17 8 9 1014.0 1013.8 0.0
16/04:30am 11.6 10.0 11.6 100 0.0 NE 11 13 6 7 1014.0 1013.8 0.0
16/04:00am 11.6 9.6 11.4 99 0.1 ENE 13 15 7 8 1013.7 1013.5 0.0
16/03:30am 12.3 11.2 12.1 99 0.1 E 9 11 5 6 1014.0 1013.8 0.0
16/03:00am 13.3 11.8 13.1 99 0.1 ESE 13 15 7 8 1014.2 1014.0 0.0
16/02:30am 13.5 11.7 13.3 99 0.1 SE 15 17 8 9 1014.3 1014.1 0.0
16/02:00am 14.2 12.9 13.6 96 0.3 SE 13 15 7 8 1014.7 1014.5 0.0
16/01:30am 15.0 13.8 13.9 93 0.6 SE 13 17 7 9 1014.9 1014.7 0.0
16/01:00am 15.6 13.6 14.0 90 0.9 SSE 17 19 9 10 1015.1 1014.9 0.0
16/12:30am 16.1 14.2 14.1 88 1.1 SSE 17 20 9 11 1015.6 1015.4 0.0
16/12:00am 16.2 14.6 14.0 87 1.2 SSE 15 20 8 11 1015.9 1015.7 0.0
 
Date/Time
CDT
Temp
°C
App
Temp
°C
Dew
Point
°C
Rel
Hum
%
Delta-T
°C
Wind Press
QNH
hPa
Press
MSL
hPa
Rain since
9am
mm
Dir  Spd
km/h
Gust
km/h
Spd
kts
Gust
kts
15/11:30pm 16.2 14.2 14.0 87 1.2 SSE 17 19 9 10 1015.6 1015.4 0.0
15/11:00pm 16.4 14.3 13.7 84 1.5 SSE 17 20 9 11 1015.4 1015.2 0.0
15/10:30pm 16.6 14.5 13.5 82 1.7 SSE 17 20 9 11 1015.2 1015.0 0.0
15/10:00pm 16.8 14.2 13.3 80 2.0 SSE 19 22 10 12 1015.0 1014.8 0.0
15/09:30pm 17.2 14.6 13.1 77 2.3 SSE 19 22 10 12 1014.6 1014.4 0.0
15/09:00pm 17.9 15.1 13.2 74 2.7 SSE 20 26 11 14 1014.4 1014.2 0.0
15/08:30pm 18.7 15.1 13.1 70 3.2 SSE 24 30 13 16 1014.2 1014.0 0.0
15/08:00pm 19.1 15.4 12.8 67 3.6 SSE 24 32 13 17 1013.9 1013.7 0.0
15/07:30pm 20.1 15.6 12.6 62 4.2 SSE 28 33 15 18 1013.5 1013.3 0.0
15/07:00pm 21.1 16.3 11.7 55 5.2 S 28 35 15 19 1013.1 1012.9 0.0
15/06:30pm 21.3 17.1 12.4 57 5.0 SSE 26 32 14 17 1012.9 1012.7 0.0
15/06:00pm 22.8 18.7 11.5 49 6.3 S 24 35 13 19 1012.7 1012.5 0.0
15/05:30pm 22.6 18.0 12.3 52 5.9 S 28 35 15 19 1012.6 1012.4 0.0
15/05:00pm 23.5 19.1 12.8 51 6.2 S 28 37 15 20 1012.7 1012.5 0.0
15/04:30pm 23.6 19.8 12.3 49 6.5 S 24 32 13 17 1012.9 1012.7 0.0
15/04:00pm 23.3 19.1 12.3 50 6.3 SSW 26 35 14 19 1013.1 1012.9 0.0
15/03:30pm 23.7 20.0 12.7 50 6.3 S 24 37 13 20 1013.0 1012.8 0.0
15/03:00pm 23.8 20.9 13.9 54 5.8 S 22 32 12 17 1013.3 1013.1 0.0
15/02:30pm 24.6 21.7 14.1 52 6.2 S 22 30 12 16 1013.5 1013.3 0.0
15/02:00pm 24.3 21.6 13.5 51 6.3 S 20 26 11 14 1013.8 1013.6 0.0
15/01:30pm 24.1 21.2 13.0 50 6.4 SSE 20 32 11 17 1014.0 1013.8 0.0
15/01:00pm 25.1 23.3 13.3 48 6.9 SW 15 24 8 13 1014.2 1014.0 0.0
15/12:30pm 23.7 21.4 10.4 43 7.4 WNW 13 20 7 11 1014.6 1014.4 0.0
15/12:00pm 22.8 20.9 11.8 50 6.2 W 13 17 7 9 1014.9 1014.7 0.0
15/11:30am 22.1 20.8 11.2 50 6.1 WNW 9 20 5 11 1015.2 1015.0 0.0
15/11:00am 21.2 20.0 11.5 54 5.4 NE 9 17 5 9 1015.3 1015.1 0.0
15/10:30am 20.3 19.9 12.5 61 4.4 WNW 6 13 3 7 1015.6 1015.4 0.0
15/10:00am 19.7 18.7 12.2 62 4.2 N 9 17 5 9 1015.9 1015.7 0.0
15/09:30am 19.2 17.7 13.2 68 3.4 NNE 13 19 7 10 1015.7 1015.5 0.0
15/09:00am 18.7 17.6 14.2 75 2.6 NNE 13 17 7 9 1015.7 1015.5 0.0
15/08:30am 17.2 17.4 15.7 91 0.9 N 9 13 5 7 1015.7 1015.5 0.0
15/08:00am 15.0 14.9 15.0 100 0.0 N 9 13 5 7 1015.6 1015.4 0.0
15/07:30am 12.0 11.3 12.0 100 0.0 NNW 7 9 4 5 1015.4 1015.2 0.0
15/07:00am 10.5 8.6 10.5 100 0.0 NNW 11 11 6 6 1015.1 1014.9 0.0
15/06:30am 10.3 8.7 10.3 100 0.0 N 9 9 5 5 1014.8 1014.6 0.0
15/06:00am 10.3 10.4 10.3 100 0.0 CALM 0 0 0 0 1014.7 1014.5 0.0
15/05:30am 10.2 10.3 10.1 99 0.1 CALM 0 4 0 2 1014.6 1014.4 0.0
15/05:00am 11.7 12.2 11.5 99 0.1 CALM 0 7 0 4 1014.7 1014.5 0.0
15/04:30am 12.7 13.2 12.7 100 0.0 SW 2 6 1 3 1014.8 1014.6 0.0
15/04:00am 13.1 12.7 13.1 100 0.0 SW 7 9 4 5 1014.7 1014.5 0.0
15/03:30am 11.8 12.3 11.6 99 0.1 CALM 0 0 0 0 1014.9 1014.7 0.0
15/03:00am 12.7 12.3 12.5 99 0.1 WSW 6 7 3 4 1015.4 1015.2 0.0
15/02:30am 12.8 12.5 12.6 99 0.1 WSW 6 7 3 4 1015.7 1015.5 0.0
15/02:00am 13.5 14.0 12.9 96 0.3 WSW 2 7 1 4 1015.9 1015.7 0.0
15/01:30am 14.0 13.7 13.2 95 0.4 SW 7 9 4 5 1016.3 1016.1 0.0
15/01:00am 14.1 12.5 12.8 92 0.7 SW 13 15 7 8 1016.5 1016.3 0.0
15/12:30am 14.4 13.3 13.0 91 0.8 WSW 11 13 6 7 1016.7 1016.5 0.0
15/12:00am 15.4 14.3 13.2 87 1.2 SW 11 15 6 8 1016.7 1016.5 0.0
 
Date/Time
CDT
Temp
°C
App
Temp
°C
Dew
Point
°C
Rel
Hum
%
Delta-T
°C
Wind Press
QNH
hPa
Press
MSL
hPa
Rain since
9am
mm
Dir  Spd
km/h
Gust
km/h
Spd
kts
Gust
kts
14/11:30pm 15.4 14.6 12.9 85 1.4 SW 9 9 5 5 1016.9 1016.7 0.0
14/11:00pm 15.6 16.6 13.1 85 1.4 CALM 0 0 0 0 1016.7 1016.5 0.0
14/10:30pm 15.4 14.9 12.7 84 1.5 SSE 7 9 4 5 1016.4 1016.2 0.0
14/10:00pm 15.5 13.8 12.6 83 1.6 SSE 13 15 7 8 1016.3 1016.1 0.0
14/09:30pm 16.1 15.2 12.7 80 1.9 SSE 9 13 5 7 1016.2 1016.0 0.0
14/09:00pm 17.3 15.7 12.8 75 2.5 S 13 17 7 9 1015.8 1015.6 0.0
14/08:30pm 18.2 15.4 12.6 70 3.1 S 19 22 10 12 1015.6 1015.4 0.0
14/08:00pm 19.2 16.1 12.2 64 3.9 S 20 24 11 13 1015.4 1015.2 0.0
14/07:30pm 19.8 16.8 12.1 61 4.3 S 19 26 10 14 1015.2 1015.0 0.0
14/07:00pm 20.1 17.0 12.1 60 4.5 S 20 30 11 16 1015.1 1014.9 0.0
14/06:30pm 20.9 17.9 12.1 57 4.9 SSW 19 28 10 15 1015.1 1014.9 0.0
14/06:00pm 21.0 17.9 12.2 57 5.0 S 20 32 11 17 1015.0 1014.8 0.0
14/05:30pm 21.6 18.5 13.5 60 4.7 SSW 22 30 12 16 1015.0 1014.8 0.0
14/05:00pm 20.5 16.6 12.2 59 4.7 SSW 24 33 13 18 1015.1 1014.9 0.0
14/04:30pm 20.8 16.4 11.7 56 5.1 S 26 37 14 20 1015.4 1015.2 0.0
14/04:00pm 21.0 17.0 11.9 56 5.1 S 24 35 13 19 1015.6 1015.4 0.0
14/03:30pm 20.4 16.6 12.4 60 4.5 S 24 32 13 17 1016.0 1015.8 0.0
14/03:00pm 21.8 18.0 12.4 55 5.3 S 24 35 13 19 1015.9 1015.7 0.0
14/02:30pm 21.1 17.0 11.4 54 5.4 S 24 35 13 19 1016.0 1015.8 0.0
14/02:00pm 21.0 17.1 12.2 57 5.0 S 24 37 13 20 1016.3 1016.1 0.0
14/01:30pm 20.8 17.3 12.2 58 4.8 S 22 33 12 18 1016.4 1016.2 0.0
14/01:00pm 21.0 16.9 11.6 55 5.2 S 24 33 13 18 1016.5 1016.3 0.0
14/12:30pm 20.9 16.8 11.5 55 5.2 S 24 37 13 20 1016.7 1016.5 0.0
14/12:00pm 21.3 17.8 12.2 56 5.1 S 22 33 12 18 1016.5 1016.3 0.0
14/11:30am 21.0 17.2 12.4 58 4.9 S 24 32 13 17 1016.4 1016.2 0.0
14/11:00am 20.4 15.4 11.1 55 5.1 S 28 35 15 19 1016.2 1016.0 0.0
14/10:30am 20.0 15.2 11.5 58 4.7 S 28 37 15 20 1016.1 1015.9 0.0
14/10:00am 19.6 15.1 12.6 64 3.9 S 28 35 15 19 1016.0 1015.8 0.0
14/09:30am 18.7 14.5 12.5 67 3.5 S 26 35 14 19 1016.0 1015.8 0.0
14/09:00am 18.7 14.7 12.9 69 3.3 S 26 35 14 19 1015.8 1015.6 0.2
14/08:30am 17.9 13.8 12.8 72 2.9 SSW 26 33 14 18 1015.6 1015.4 0.2
14/08:00am 16.7 15.3 14.5 87 1.3 SSW 15 20 8 11 1015.3 1015.1 0.2
14/07:30am 14.9 14.3 14.7 99 0.1 SW 11 13 6 7 1015.0 1014.8 0.2
14/07:00am 14.2 13.8 14.0 99 0.1 SW 9 13 5 7 1014.8 1014.6 0.2
14/06:30am 14.1 12.9 13.9 99 0.1 SSW 13 15 7 8 1014.5 1014.3 0.2
14/06:00am 14.6 13.8 14.0 96 0.3 SSW 11 15 6 8 1014.3 1014.1 0.2
14/05:30am 15.3 13.8 14.2 93 0.6 SW 15 17 8 9 1014.1 1013.9 0.2
14/05:00am 16.3 14.6 14.7 90 0.9 SW 17 20 9 11 1014.0 1013.8 0.2
14/04:30am 16.9 15.5 15.6 92 0.8 SW 17 20 9 11 1013.9 1013.7 0.2
14/04:00am 16.7 16.1 15.6 93 0.6 WSW 13 19 7 10 1013.9 1013.7 0.2
14/03:30am 16.6 16.1 15.0 90 0.9 SW 11 11 6 6 1014.0 1013.8 0.2
14/03:00am 16.4 15.9 14.8 90 0.9 SW 11 13 6 7 1014.1 1013.9 0.2
14/02:30am 17.3 16.4 14.8 85 1.4 SW 13 19 7 10 1014.1 1013.9 0.2
14/02:00am 17.2 16.9 15.5 90 1.0 SSW 11 15 6 8 1013.8 1013.6 0.2
14/01:30am 17.2 16.0 15.0 87 1.3 SSW 15 20 8 11 1014.1 1013.9 0.2
14/01:00am 16.4 16.0 16.2 99 0.1 SSW 13 17 7 9 1014.3 1014.1 0.2
14/12:30am 15.8 15.2 15.6 99 0.1 SW 13 17 7 9 1014.2 1014.0 0.2
14/12:00am 16.2 16.1 16.0 99 0.1 SSW 11 15 6 8 1014.3 1014.1 0.2
 
Date/Time
CDT
Temp
°C
App
Temp
°C
Dew
Point
°C
Rel
Hum
%
Delta-T
°C
Wind Press
QNH
hPa
Press
MSL
hPa
Rain since
9am
mm
Dir  Spd
km/h
Gust
km/h
Spd
kts
Gust
kts
13/11:30pm 16.7 15.6 16.4 98 0.2 SSW 17 19 9 10 1014.2 1014.0 0.2
13/11:00pm 17.4 15.9 16.3 93 0.7 SSW 19 24 10 13 1014.1 1013.9 0.2
13/10:30pm 17.7 16.3 17.1 96 0.4 S 20 26 11 14 1014.2 1014.0 0.2
13/10:00pm 17.6 15.7 17.6 100 0.0 SSW 24 33 13 18 1013.7 1013.5 0.2
13/09:30pm 17.6 15.7 17.6 100 0.0 SSW 24 32 13 17 1013.5 1013.3 0.2
13/09:16pm 17.6 14.9 17.6 100 0.0 SSW 28 35 15 19 1013.0 1012.8 0.2
13/09:02pm 17.6 14.9 17.6 100 0.0 SSW 28 39 15 21 1012.9 1012.7 0.2

Other Formats:

Comma delimited format used in spreadsheet applications
http://www.bom.gov.au/fwo/IDS60801/IDS60801.94651.axf

JavaScript Object Notation format (JSON) in row-major order
http://www.bom.gov.au/fwo/IDS60801/IDS60801.94651.json